createdAt,value
2019-04-14T00:00:33.689Z,21.8
2019-04-14T00:03:43.947Z,21.8
2019-04-14T00:06:54.988Z,21.8
2019-04-14T00:10:07.102Z,21.8
2019-04-14T00:13:17.532Z,21.8
2019-04-14T00:16:27.443Z,21.8
2019-04-14T00:19:37.366Z,21.8
2019-04-14T00:22:48.994Z,21.8
2019-04-14T00:25:58.732Z,21.8
2019-04-14T00:29:08.925Z,21.8
2019-04-14T00:32:20.477Z,21.7
2019-04-14T00:35:32.096Z,21.7
2019-04-14T00:38:45.674Z,21.8
2019-04-14T00:41:58.608Z,21.8
2019-04-14T00:45:15.526Z,21.8
2019-04-14T00:49:07.029Z,21.7
2019-04-14T00:52:18.946Z,21.7
2019-04-14T00:55:31.452Z,21.7
2019-04-14T00:58:41.254Z,21.7
2019-04-14T01:01:50.946Z,21.7
2019-04-14T01:05:02.511Z,21.7
2019-04-14T01:08:14.117Z,21.7
2019-04-14T01:11:24.849Z,21.7
2019-04-14T01:14:34.698Z,21.7
2019-04-14T01:17:46.123Z,21.7
2019-04-14T01:20:56.106Z,21.7
2019-04-14T01:24:07.537Z,21.7
2019-04-14T01:27:17.526Z,21.7
2019-04-14T01:30:28.431Z,21.7
2019-04-14T01:33:38.391Z,21.7
2019-04-14T01:36:50.352Z,21.7
2019-04-14T01:40:01.322Z,21.7
2019-04-14T01:43:12.741Z,21.7
2019-04-14T01:46:27.770Z,21.7
2019-04-14T01:49:44.363Z,21.7
2019-04-14T01:52:54.457Z,21.7
2019-04-14T01:56:05.561Z,21.7
2019-04-14T01:59:15.674Z,21.7
2019-04-14T02:02:27.079Z,21.7
2019-04-14T02:05:36.989Z,21.7
2019-04-14T02:08:48.112Z,21.7
2019-04-14T02:11:59.581Z,21.7
2019-04-14T02:15:09.725Z,21.7
2019-04-14T02:18:20.914Z,21.7
2019-04-14T02:21:32.506Z,21.7
2019-04-14T02:24:44.138Z,21.7
2019-04-14T02:27:55.824Z,21.7
2019-04-14T02:31:16.777Z,21.7
2019-04-14T02:40:36.105Z,21.7
2019-04-14T02:49:26.977Z,21.7
2019-04-14T03:07:35.967Z,21.7
2019-04-14T03:16:51.665Z,21.7
2019-04-14T03:26:04.541Z,21.7
2019-04-14T03:36:16.154Z,21.6
2019-04-14T03:45:50.679Z,21.7
2019-04-14T03:54:32.627Z,21.6
2019-04-14T03:59:17.483Z,21.6
2019-04-14T04:02:31.563Z,21.7
2019-04-14T04:05:41.464Z,21.7
2019-04-14T04:08:51.115Z,21.7
2019-04-14T04:12:05.267Z,21.7
2019-04-14T04:15:15.103Z,21.7
2019-04-14T04:18:24.720Z,21.7
2019-04-14T04:22:15.032Z,21.7
2019-04-14T04:25:24.829Z,21.7
2019-04-14T04:28:34.505Z,21.7
2019-04-14T04:31:46.082Z,21.6
2019-04-14T04:34:56.010Z,21.7
2019-04-14T04:38:07.350Z,21.6
2019-04-14T04:41:17.127Z,21.7
2019-04-14T04:44:29.086Z,21.7
2019-04-14T04:47:39.033Z,21.7
2019-04-14T04:50:49.967Z,21.8
2019-04-14T04:53:59.732Z,21.8
2019-04-14T04:57:09.375Z,21.8
2019-04-14T05:00:19.925Z,21.8
2019-04-14T05:03:29.939Z,22.2
2019-04-14T05:06:41.674Z,22.5
2019-04-14T05:09:53.425Z,22.9
2019-04-14T05:13:07.379Z,22.9
2019-04-14T05:16:17.354Z,22.9
2019-04-14T05:19:31.645Z,22.7
2019-04-14T05:22:50.791Z,22.9
2019-04-14T05:26:00.642Z,23.1
2019-04-14T05:29:10.477Z,22.9
2019-04-14T05:32:21.745Z,22.7
2019-04-14T05:35:31.745Z,22.6
2019-04-14T05:38:42.974Z,22.6
2019-04-14T05:41:59.803Z,22.6
2019-04-14T05:45:35.085Z,22.6
2019-04-14T05:48:44.917Z,22.6
2019-04-14T05:51:56.953Z,22.7
2019-04-14T05:55:11.230Z,22.8
2019-04-14T05:58:21.035Z,22.8
2019-04-14T06:01:31.568Z,22.7
2019-04-14T06:04:41.747Z,22.8
2019-04-14T06:07:51.607Z,22.8
2019-04-14T06:11:00.293Z,22.8
2019-04-14T06:14:06.332Z,22.8
2019-04-14T06:17:12.270Z,22.8
2019-04-14T06:20:18.212Z,22.8
2019-04-14T06:23:24.131Z,22.8
2019-04-14T06:26:30.087Z,22.9
2019-04-14T06:29:35.979Z,22.9
2019-04-14T06:32:41.940Z,22.9
2019-04-14T06:35:47.863Z,22.9
2019-04-14T06:38:53.924Z,23
2019-04-14T06:41:59.957Z,23
2019-04-14T06:45:05.842Z,22.9
2019-04-14T06:48:11.784Z,22.9
2019-04-14T06:51:17.773Z,23
2019-04-14T06:54:23.790Z,23
2019-04-14T06:57:29.680Z,23
2019-04-14T07:00:35.772Z,23
2019-04-14T07:03:41.810Z,23
2019-04-14T07:06:47.784Z,23
2019-04-14T07:09:56.222Z,23
2019-04-14T07:13:02.145Z,23
2019-04-14T07:16:08.121Z,23
2019-04-14T07:19:14.145Z,23
2019-04-14T07:22:20.198Z,23
2019-04-14T07:25:26.236Z,23.1
2019-04-14T07:28:32.158Z,23.1
2019-04-14T07:31:38.076Z,23.1
2019-04-14T07:34:43.983Z,23.1
2019-04-14T07:37:50.092Z,23.1
2019-04-14T07:40:55.997Z,23.1
2019-04-14T07:44:01.925Z,23.1
2019-04-14T07:47:07.814Z,23.1
2019-04-14T07:50:15.004Z,23.1
2019-04-14T07:53:21.122Z,23.1
2019-04-14T07:56:27.104Z,23.1
2019-04-14T07:59:33.038Z,23.1
2019-04-14T08:02:39.001Z,23.2
2019-04-14T08:05:44.992Z,23.2
2019-04-14T08:08:50.874Z,23.2
2019-04-14T08:11:56.885Z,23.2
2019-04-14T08:15:02.788Z,23.2
2019-04-14T08:18:08.741Z,23.2
2019-04-14T08:21:14.698Z,23.2
2019-04-14T08:24:20.563Z,23.2
2019-04-14T08:27:26.504Z,23.2
2019-04-14T08:30:32.431Z,23.3
2019-04-14T08:33:38.387Z,23.3
2019-04-14T08:36:44.350Z,23.3
2019-04-14T08:39:50.262Z,23.3
2019-04-14T08:42:56.200Z,23.3
2019-04-14T08:46:02.080Z,23.3
2019-04-14T08:49:08.031Z,23.3
2019-04-14T08:52:13.942Z,23.3
2019-04-14T08:55:20.009Z,23.3
2019-04-14T08:58:25.935Z,23.3
2019-04-14T09:01:31.959Z,23.4
2019-04-14T09:04:37.997Z,23.3
2019-04-14T09:07:43.919Z,23.4
2019-04-14T09:10:49.860Z,23.4
2019-04-14T09:13:55.838Z,23.4
2019-04-14T09:17:01.955Z,23.4
2019-04-14T09:20:07.967Z,23.4
2019-04-14T09:23:13.866Z,23.4
2019-04-14T09:26:19.815Z,23.4
2019-04-14T09:29:25.887Z,23.4
2019-04-14T09:32:31.901Z,23.4
2019-04-14T09:35:37.974Z,23.4
2019-04-14T09:38:43.969Z,23.4
2019-04-14T09:41:49.928Z,23.4
2019-04-14T09:44:55.881Z,23.4
2019-04-14T09:48:01.830Z,23.4
2019-04-14T09:51:07.999Z,23.4
2019-04-14T09:54:14.081Z,23.4
2019-04-14T09:57:19.972Z,23.4
2019-04-14T10:00:25.909Z,23.4
2019-04-14T10:03:32.094Z,23.4
2019-04-14T10:06:40.759Z,23.3
2019-04-14T10:09:47.360Z,23.3
2019-04-14T10:12:53.451Z,23.4
2019-04-14T10:15:59.366Z,23.4
2019-04-14T10:19:05.480Z,23.3
2019-04-14T10:22:11.334Z,23.3
2019-04-14T10:25:17.273Z,23.3
2019-04-14T10:28:23.169Z,23.3
2019-04-14T10:31:29.133Z,23.3
2019-04-14T10:34:35.141Z,23.3
2019-04-14T10:37:41.118Z,23.3
2019-04-14T10:40:47.116Z,23.3
2019-04-14T10:43:53.203Z,23.3
2019-04-14T10:46:59.171Z,23.3
2019-04-14T10:50:05.153Z,23.3
2019-04-14T10:53:11.292Z,23.3
2019-04-14T10:56:17.299Z,23.3
2019-04-14T10:59:23.221Z,23.3
2019-04-14T11:02:29.234Z,23.3
2019-04-14T11:05:35.762Z,23.3
2019-04-14T11:08:41.704Z,23.3
2019-04-14T11:11:47.671Z,23.3
2019-04-14T11:14:53.581Z,23.3
2019-04-14T11:17:59.545Z,23.3
2019-04-14T11:21:05.404Z,23.2
2019-04-14T11:24:11.433Z,23.2
2019-04-14T11:27:17.324Z,23.3
2019-04-14T11:30:23.253Z,23.2
2019-04-14T11:33:29.212Z,23.2
2019-04-14T11:36:35.152Z,23.2
2019-04-14T11:39:41.126Z,23.2
2019-04-14T11:42:52.383Z,23.2
2019-04-14T11:45:58.551Z,23.2
2019-04-14T11:49:07.993Z,23.2
2019-04-14T11:52:14.005Z,23.1
2019-04-14T11:55:19.911Z,23.1
2019-04-14T11:58:25.887Z,23.1
2019-04-14T12:01:34.709Z,23.1
2019-04-14T12:04:40.737Z,23.1
2019-04-14T12:07:46.731Z,23.1
2019-04-14T12:10:52.778Z,23.1
2019-04-14T12:13:58.824Z,23.1
2019-04-14T12:17:04.940Z,23
2019-04-14T12:20:10.896Z,23
2019-04-14T12:23:16.828Z,23
2019-04-14T12:26:22.795Z,23
2019-04-14T12:29:28.782Z,23
2019-04-14T12:32:39.669Z,23
2019-04-14T12:35:45.599Z,23
2019-04-14T12:38:51.571Z,23
2019-04-14T12:41:57.502Z,23
2019-04-14T12:45:03.468Z,23
2019-04-14T12:48:09.421Z,23
2019-04-14T12:51:15.423Z,22.9
2019-04-14T12:54:24.070Z,22.9
2019-04-14T12:57:29.996Z,23
2019-04-14T13:00:35.956Z,23
2019-04-14T13:03:42.281Z,23
2019-04-14T13:06:48.303Z,23
2019-04-14T13:09:54.242Z,23
2019-04-14T13:13:00.178Z,22.9
2019-04-14T13:16:06.142Z,23
2019-04-14T13:19:12.086Z,23
2019-04-14T13:22:17.997Z,23
2019-04-14T13:25:37.574Z,23.1
2019-04-14T13:28:43.700Z,23.1
2019-04-14T13:31:49.881Z,23.1
2019-04-14T13:34:55.784Z,23.2
2019-04-14T13:38:01.731Z,23.2
2019-04-14T13:41:07.584Z,23.2
2019-04-14T13:44:13.575Z,23.2
2019-04-14T13:47:19.556Z,23.3
2019-04-14T13:50:25.548Z,23.3
2019-04-14T13:53:31.488Z,23.2
2019-04-14T13:56:37.391Z,23.3
2019-04-14T13:59:43.355Z,23.2
2019-04-14T14:02:49.303Z,23.2
2019-04-14T14:05:55.230Z,23.3
2019-04-14T14:09:01.190Z,23.1
2019-04-14T14:12:07.163Z,23
2019-04-14T14:15:13.097Z,22.9
2019-04-14T14:18:19.067Z,23
2019-04-14T14:21:25.026Z,23
2019-04-14T14:24:30.984Z,22.9
2019-04-14T14:27:36.885Z,22.8
2019-04-14T14:30:42.826Z,22.8
2019-04-14T14:33:48.777Z,22.8
2019-04-14T14:36:54.962Z,22.8
2019-04-14T14:40:00.888Z,22.8
2019-04-14T14:43:06.898Z,22.7
2019-04-14T14:46:12.746Z,22.7
2019-04-14T14:49:18.691Z,22.7
2019-04-14T14:52:24.565Z,22.6
2019-04-14T14:55:30.580Z,22.6
2019-04-14T14:58:36.629Z,22.6
2019-04-14T15:01:42.544Z,22.7
2019-04-14T15:04:48.515Z,22.6
2019-04-14T15:07:54.463Z,22.7
2019-04-14T15:11:04.272Z,22.5
2019-04-14T15:14:10.482Z,22.4
2019-04-14T15:17:16.408Z,22.4
2019-04-14T15:20:25.272Z,22.5
2019-04-14T15:23:31.334Z,22.4
2019-04-14T15:26:37.257Z,22.6
2019-04-14T15:29:43.262Z,22.6
2019-04-14T15:32:49.264Z,22.6
2019-04-14T15:35:55.182Z,22.6
2019-04-14T15:39:01.098Z,22.6
2019-04-14T15:42:07.032Z,22.6
2019-04-14T15:45:14.057Z,22.7
2019-04-14T15:48:20.274Z,22.6
2019-04-14T15:51:26.237Z,22.6
2019-04-14T15:54:32.222Z,22.6
2019-04-14T15:57:38.286Z,22.6
2019-04-14T16:00:44.236Z,22.5
2019-04-14T16:03:50.136Z,22.5
2019-04-14T16:06:56.151Z,22.5
2019-04-14T16:10:02.147Z,22.5
2019-04-14T16:13:08.037Z,22.5
2019-04-14T16:16:13.991Z,22.4
2019-04-14T16:19:19.986Z,22.4
2019-04-14T16:22:25.945Z,22.4
2019-04-14T16:25:31.858Z,22.3
2019-04-14T16:28:37.773Z,22.3
2019-04-14T16:31:43.758Z,22.3
2019-04-14T16:34:49.683Z,22.3
2019-04-14T16:37:55.660Z,22.2
2019-04-14T16:41:01.626Z,22.2
2019-04-14T16:44:07.638Z,22.2
2019-04-14T16:47:13.680Z,22.2
2019-04-14T16:50:19.594Z,22.2
2019-04-14T16:53:25.593Z,22.1
2019-04-14T16:56:31.498Z,22.1
2019-04-14T16:59:37.533Z,22.1
2019-04-14T17:02:43.528Z,22.1
2019-04-14T17:05:52.554Z,22.1
2019-04-14T17:08:58.522Z,22
2019-04-14T17:12:04.529Z,22
2019-04-14T17:15:10.433Z,22
2019-04-14T17:18:16.559Z,22
2019-04-14T17:21:22.413Z,22
2019-04-14T17:24:28.412Z,22
2019-04-14T17:27:34.411Z,21.9
2019-04-14T17:30:40.386Z,21.9
2019-04-14T17:33:46.360Z,21.9
2019-04-14T17:36:55.327Z,21.9
2019-04-14T17:40:01.408Z,21.9
2019-04-14T17:43:07.360Z,21.8
2019-04-14T17:46:13.281Z,21.8
2019-04-14T17:49:19.569Z,21.8
2019-04-14T17:52:25.628Z,21.8
2019-04-14T17:55:31.670Z,21.8
2019-04-14T17:58:52.448Z,21.8
2019-04-14T18:01:58.328Z,21.8
2019-04-14T18:05:04.315Z,21.7
2019-04-14T18:08:10.296Z,21.7
2019-04-14T18:11:16.201Z,21.7
2019-04-14T18:14:22.367Z,21.7
2019-04-14T18:17:30.991Z,21.7
2019-04-14T18:20:36.844Z,21.7
2019-04-14T18:23:42.898Z,21.6
2019-04-14T18:26:48.755Z,21.6
2019-04-14T18:29:54.736Z,21.6
2019-04-14T18:33:00.783Z,21.6
2019-04-14T18:36:06.640Z,21.6
2019-04-14T18:39:12.564Z,21.6
2019-04-14T18:42:18.504Z,21.6
2019-04-14T18:45:24.427Z,21.6
2019-04-14T18:48:30.320Z,21.6
2019-04-14T18:51:36.290Z,21.5
2019-04-14T18:54:53.947Z,21.5
2019-04-14T18:58:00.490Z,21.5
2019-04-14T19:01:06.439Z,21.5
2019-04-14T19:04:12.565Z,21.5
2019-04-14T19:07:18.470Z,21.5
2019-04-14T19:10:24.435Z,21.5
2019-04-14T19:13:30.379Z,21.5
2019-04-14T19:16:39.497Z,21.5
2019-04-14T19:19:45.946Z,21.4
2019-04-14T19:23:06.197Z,21.4
2019-04-14T19:26:12.100Z,21.4
2019-04-14T19:29:18.179Z,21.4
2019-04-14T19:32:24.280Z,21.4
2019-04-14T19:35:30.233Z,21.4
2019-04-14T19:38:36.288Z,21.4
2019-04-14T19:41:42.362Z,21.4
2019-04-14T19:44:48.355Z,21.4
2019-04-14T19:47:54.263Z,21.4
2019-04-14T19:51:00.218Z,21.3
2019-04-14T19:54:06.148Z,21.3
2019-04-14T19:57:14.763Z,21.3
2019-04-14T20:00:20.931Z,21.3
2019-04-14T20:03:26.943Z,21.3
2019-04-14T20:06:32.852Z,21.3
2019-04-14T20:09:39.065Z,21.3
2019-04-14T20:12:45.062Z,21.3
2019-04-14T20:15:51.147Z,21.3
2019-04-14T20:19:09.563Z,21.3
2019-04-14T20:22:16.398Z,21.2
2019-04-14T20:25:32.996Z,21.2
2019-04-14T20:28:39.817Z,21.2
2019-04-14T20:31:45.862Z,21.2
2019-04-14T20:34:51.971Z,21.2
2019-04-14T20:37:57.896Z,21.2
2019-04-14T20:41:03.853Z,21.2
2019-04-14T20:44:09.842Z,21.2
2019-04-14T20:47:15.913Z,21.2
2019-04-14T20:50:21.889Z,21.2
2019-04-14T20:53:27.755Z,21.1
2019-04-14T20:56:33.764Z,21.1
2019-04-14T20:59:39.676Z,21.1
2019-04-14T21:02:45.615Z,21.1
2019-04-14T21:05:51.863Z,21.1
2019-04-14T21:09:00.592Z,21.1
2019-04-14T21:12:06.479Z,21.1
2019-04-14T21:15:12.430Z,21.1
2019-04-14T21:18:18.339Z,21.1
2019-04-14T21:21:24.325Z,21.1
2019-04-14T21:24:30.322Z,21
2019-04-14T21:27:36.221Z,21
2019-04-14T21:30:42.287Z,21
2019-04-14T21:33:48.327Z,21
2019-04-14T21:36:54.326Z,21
2019-04-14T21:40:00.268Z,21
2019-04-14T21:43:06.277Z,21
2019-04-14T21:46:12.351Z,21
2019-04-14T21:49:18.252Z,21
2019-04-14T21:52:24.255Z,21
2019-04-14T21:55:30.169Z,21
2019-04-14T21:58:38.991Z,21
2019-04-14T22:01:44.903Z,21
2019-04-14T22:04:50.795Z,21
2019-04-14T22:07:56.846Z,21
2019-04-14T22:11:02.803Z,20.9
2019-04-14T22:14:08.718Z,20.9
2019-04-14T22:17:14.695Z,20.9
2019-04-14T22:20:20.653Z,20.9
2019-04-14T22:23:26.652Z,20.9
2019-04-14T22:26:32.695Z,20.9
2019-04-14T22:29:38.621Z,20.9
2019-04-14T22:32:44.669Z,20.9
2019-04-14T22:35:50.580Z,20.9
2019-04-14T22:38:56.610Z,20.9
2019-04-14T22:42:02.543Z,20.9
2019-04-14T22:45:08.641Z,20.9
2019-04-14T22:48:14.558Z,20.9
2019-04-14T22:51:20.532Z,20.9
2019-04-14T22:54:26.423Z,20.9
2019-04-14T22:57:32.367Z,20.9
2019-04-14T23:00:38.361Z,20.9
2019-04-14T23:03:44.452Z,20.9
2019-04-14T23:06:53.088Z,20.9
2019-04-14T23:09:59.042Z,20.9
2019-04-14T23:13:05.112Z,20.9
2019-04-14T23:16:11.058Z,20.9
2019-04-14T23:19:17.049Z,20.9
2019-04-14T23:22:22.998Z,20.9
2019-04-14T23:25:28.975Z,20.9
2019-04-14T23:28:34.956Z,20.9
2019-04-14T23:31:40.901Z,21
2019-04-14T23:34:46.835Z,21
2019-04-14T23:37:52.760Z,20.9
2019-04-14T23:40:58.827Z,20.9
2019-04-14T23:44:04.856Z,20.9
2019-04-14T23:47:10.834Z,21
2019-04-14T23:50:16.869Z,21
2019-04-14T23:53:22.813Z,21
2019-04-14T23:56:31.688Z,21
2019-04-14T23:59:37.706Z,21
